Map

Track Data

SID SEASON NUMBER BASIN SUBBASIN NAME ISO_TIME NATURE LAT LON WMO_WIND WMO_PRES WMO_AGENCY TRACK_TYPE DIST2LAND LANDFALL IFLAG USA_AGENCY USA_ATCF_ID USA_LAT USA_LON USA_RECORD USA_STATUS USA_WIND USA_PRES USA_SSHS USA_R34_NE USA_R34_SE USA_R34_SW USA_R34_NW USA_R50_NE USA_R50_SE USA_R50_SW USA_R50_NW USA_R64_NE USA_R64_SE USA_R64_SW USA_R64_NW USA_POCI USA_ROCI USA_RMW USA_EYE TOKYO_LAT TOKYO_LON TOKYO_GRADE TOKYO_WIND TOKYO_PRES TOKYO_R50_DIR TOKYO_R50_LONG TOKYO_R50_SHORT TOKYO_R30_DIR TOKYO_R30_LONG TOKYO_R30_SHORT TOKYO_LAND CMA_LAT CMA_LON CMA_CAT CMA_WIND CMA_PRES HKO_LAT HKO_LON HKO_CAT HKO_WIND HKO_PRES NEWDELHI_LAT NEWDELHI_LON NEWDELHI_GRADE NEWDELHI_WIND NEWDELHI_PRES NEWDELHI_CI NEWDELHI_DP NEWDELHI_POCI REUNION_LAT REUNION_LON REUNION_TYPE REUNION_WIND REUNION_PRES REUNION_TNUM REUNION_CI REUNION_RMW REUNION_R34_NE REUNION_R34_SE REUNION_R34_SW REUNION_R34_NW REUNION_R50_NE REUNION_R50_SE REUNION_R50_SW REUNION_R50_NW REUNION_R64_NE REUNION_R64_SE REUNION_R64_SW REUNION_R64_NW BOM_LAT BOM_LON BOM_TYPE BOM_WIND BOM_PRES BOM_TNUM BOM_CI BOM_RMW BOM_R34_NE BOM_R34_SE BOM_R34_SW BOM_R34_NW BOM_R50_NE BOM_R50_SE BOM_R50_SW BOM_R50_NW BOM_R64_NE BOM_R64_SE BOM_R64_SW BOM_R64_NW BOM_ROCI BOM_POCI BOM_EYE BOM_POS_METHOD BOM_PRES_METHOD NADI_LAT NADI_LON NADI_CAT NADI_WIND NADI_PRES WELLINGTON_LAT WELLINGTON_LON WELLINGTON_WIND WELLINGTON_PRES DS824_LAT DS824_LON DS824_STAGE DS824_WIND DS824_PRES TD9636_LAT TD9636_LON TD9636_STAGE TD9636_WIND TD9636_PRES TD9635_LAT TD9635_LON TD9635_WIND TD9635_PRES TD9635_ROCI NEUMANN_LAT NEUMANN_LON NEUMANN_CLASS NEUMANN_WIND NEUMANN_PRES MLC_LAT MLC_LON MLC_CLASS MLC_WIND MLC_PRES USA_GUST BOM_GUST BOM_GUST_PER REUNION_GUST REUNION_GUST_PER USA_SEAHGT USA_SEARAD_NE USA_SEARAD_SE USA_SEARAD_SW USA_SEARAD_NW STORM_SPEED STORM_DIR
1884245N39298 1884 29 NA NA NOT_NAMED 1884-09-01 00:00:00 TS 38.5000 -62.5000 70 hurdat_atl main 603 547 O_____________ hurdat_atl AL011884 38.5000 -62.5000 HU 70 1 17 22
1884245N39298 1884 29 NA NA NOT_NAMED 1884-09-01 03:00:00 TS 39.2631 -62.1007 main 537 489 P_____________ AL011884 39.2631 -62.1007 HU 70 1 16 22
1884245N39298 1884 29 NA NA NOT_NAMED 1884-09-01 06:00:00 TS 40.0000 -61.7000 70 hurdat_atl main 489 448 O_____________ hurdat_atl AL011884 40.0000 -61.7000 HU 70 1 16 24
1884245N39298 1884 29 NA NA NOT_NAMED 1884-09-01 09:00:00 TS 40.7114 -61.2780 main 448 394 P_____________ AL011884 40.7114 -61.2780 HU 70 1 17 27
1884245N39298 1884 29 NA NA NOT_NAMED 1884-09-01 12:00:00 TS 41.5000 -60.7000 70 hurdat_atl main 394 325 O_____________ hurdat_atl AL011884 41.5000 -60.7000 HU 70 1 20 32
1884245N39298 1884 29 NA NA NOT_NAMED 1884-09-01 15:00:00 TS 42.4396 -59.8600 main 325 265 P_____________ AL011884 42.4396 -59.8600 HU 70 1 24 35
1884245N39298 1884 29 NA NA NOT_NAMED 1884-09-01 18:00:00 TS 43.5000 -58.8000 70 hurdat_atl main 262 230 O_____________ hurdat_atl AL011884 43.5000 -58.8000 HU 70 1 27 37
1884245N39298 1884 29 NA NA NOT_NAMED 1884-09-01 21:00:00 TS 44.6109 -57.6416 main 236 133 P_____________ AL011884 44.6109 -57.6416 HU 65 1 29 38
1884245N39298 1884 29 NA NA NOT_NAMED 1884-09-02 00:00:00 TS 45.8000 -56.3000 60 hurdat_atl main 120 18 O_____________ hurdat_atl AL011884 45.8000 -56.3000 TS 60 0 32 39
1884245N39298 1884 29 NA NA NOT_NAMED 1884-09-02 03:00:00 TS 47.0951 -54.7482 main 25 0 P_____________ AL011884 47.0951 -54.7482 TS 60 0 33 41
1884245N39298 1884 29 NA NA NOT_NAMED 1884-09-02 06:00:00 TS 48.3000 -53.1000 60 hurdat_atl main 13 11 O_____________ hurdat_atl AL011884 48.3000 -53.1000 TS 60 0 31 45
1884245N39298 1884 29 NA NA NOT_NAMED 1884-09-02 09:00:00 TS 49.2836 -51.5023 main 139 139 P_____________ AL011884 49.2836 -51.5023 TS 60 0 26 50
1884245N39298 1884 29 NA NA NOT_NAMED 1884-09-02 12:00:00 TS 50.0000 -50.0000 60 hurdat_atl main 262 262 O_____________ hurdat_atl AL011884 50.0000 -50.0000 TS 60 0 21 58
1884245N39298 1884 29 NA NA NOT_NAMED 1884-09-02 15:00:00 TS 50.4207 -48.6897 main 363 363 P_____________ AL011884 50.4207 -48.6897 TS 60 0 18 67
1884245N39298 1884 29 NA NA NOT_NAMED 1884-09-02 18:00:00 TS 50.7000 -47.4000 60 hurdat_atl main 460 460 O_____________ hurdat_atl AL011884 50.7000 -47.4000 TS 60 0 19 70
1884245N39298 1884 29 NA NA NOT_NAMED 1884-09-02 21:00:00 TS 51.0563 -45.9013 main 573 573 P_____________ AL011884 51.0563 -45.9013 TS 60 0 21 70
1884245N39298 1884 29 NA NA NOT_NAMED 1884-09-03 00:00:00 ET 51.4000 -44.3000 60 hurdat_atl main 689 689 O_____________ hurdat_atl AL011884 51.4000 -44.3000 EX 60 -4 21 72
1884245N39298 1884 29 NA NA NOT_NAMED 1884-09-03 03:00:00 ET 51.7300 -42.6205 main 811 811 P_____________ AL011884 51.7300 -42.6205 EX 60 -4 21 74
1884245N39298 1884 29 NA NA NOT_NAMED 1884-09-03 06:00:00 ET 52.0000 -41.0000 60 hurdat_atl main 906 898 O_____________ hurdat_atl AL011884 52.0000 -41.0000 EX 60 -4 19 77
1884245N39298 1884 29 NA NA NOT_NAMED 1884-09-03 09:00:00 ET 52.1772 -39.5873 main 900 900 P_____________ AL011884 52.1772 -39.5873 EX 60 -4 17 80
1884245N39298 1884 29 NA NA NOT_NAMED 1884-09-03 12:00:00 ET 52.3000 -38.3000 60 hurdat_atl main 912 912 O_____________ hurdat_atl AL011884 52.3000 -38.3000 EX 60 -4 15 82
1884245N39298 1884 29 NA NA NOT_NAMED 1884-09-03 15:00:00 ET 52.3969 -37.0701 main 928 928 P_____________ AL011884 52.3969 -37.0701 EX 60 -4 15 83
1884245N39298 1884 29 NA NA NOT_NAMED 1884-09-03 18:00:00 ET 52.5000 -35.8000 60 hurdat_atl main 952 952 O_____________ hurdat_atl AL011884 52.5000 -35.8000 EX 60 -4 17 81
1884245N39298 1884 29 NA NA NOT_NAMED 1884-09-03 21:00:00 ET 52.6483 -34.3679 main 985 978 P_____________ AL011884 52.6483 -34.3679 EX 60 -4 18 81
1884245N39298 1884 29 NA NA NOT_NAMED 1884-09-04 00:00:00 ET 52.8000 -32.8000 60 hurdat_atl main 1022 1022 O_____________ hurdat_atl AL011884 52.8000 -32.8000 EX 60 -4 20 82
1884245N39298 1884 29 NA NA NOT_NAMED 1884-09-04 03:00:00 ET 52.9241 -31.0557 main 1079 1079 P_____________ AL011884 52.9241 -31.0557 EX 60 -4 21 84
1884245N39298 1884 29 NA NA NOT_NAMED 1884-09-04 06:00:00 ET 53.0000 -29.4000 60 hurdat_atl main 1142 1142 O_____________ hurdat_atl AL011884 53.0000 -29.4000 EX 60 -4 18 87
1884245N39298 1884 29 NA NA NOT_NAMED 1884-09-04 09:00:00 ET 53.0039 -28.1155 main 1183 1117 P_____________ AL011884 53.0039 -28.1155 EX 60 -4 14 90
1884245N39298 1884 29 NA NA NOT_NAMED 1884-09-04 12:00:00 ET 53.0000 -27.0000 60 hurdat_atl main 1111 1038 O_____________ hurdat_atl AL011884 53.0000 -27.0000 EX 60 -4 14 88
1884245N39298 1884 29 NA NA NOT_NAMED 1884-09-04 15:00:00 ET 53.0407 -25.8578 main 1038 965 P_____________ AL011884 53.0407 -25.8578 EX 60 -4 14 86
1884245N39298 1884 29 NA NA NOT_NAMED 1884-09-04 18:00:00 ET 53.1000 -24.7000 60 hurdat_atl main 958 884 O_____________ hurdat_atl AL011884 53.1000 -24.7000 EX 60 -4 14 85
1884245N39298 1884 29 NA NA NOT_NAMED 1884-09-04 21:00:00 ET 53.1559 -23.4878 main 878 799 P_____________ AL011884 53.1559 -23.4878 EX 55 -4 15 86
1884245N39298 1884 29 NA NA NOT_NAMED 1884-09-05 00:00:00 ET 53.2000 -22.2000 50 hurdat_atl main 792 706 O_____________ hurdat_atl AL011884 53.2000 -22.2000 EX 50 -4 16 88
1884245N39298 1884 29 NA NA NOT_NAMED 1884-09-05 03:00:00 ET 53.2001 -20.7912 main 700 614 P_____________ AL011884 53.2001 -20.7912 EX 50 -4 17 90
1884245N39298 1884 29 NA NA NOT_NAMED 1884-09-05 06:00:00 ET 53.2000 -19.4000 50 hurdat_atl main 608 528 O_____________ hurdat_atl AL011884 53.2000 -19.4000 EX 50 -4 16 88
1884245N39298 1884 29 NA NA NOT_NAMED 1884-09-05 09:00:00 ET 53.2487 -18.1411 main 522 455 P_____________ AL011884 53.2487 -18.1411 EX 50 -4 14 86
1884245N39298 1884 29 NA NA NOT_NAMED 1884-09-05 12:00:00 ET 53.3000 -17.0000 50 hurdat_atl main 448 382 O_____________ hurdat_atl AL011884 53.3000 -17.0000 EX 50 -4 13 88
1884245N39298 1884 29 NA NA NOT_NAMED 1884-09-05 15:00:00 ET 53.2989 -15.9465 main 376 317 P_____________ AL011884 53.2989 -15.9465 EX 50 -4 12 90
1884245N39298 1884 29 NA NA NOT_NAMED 1884-09-05 18:00:00 ET 53.3000 -15.0000 50 hurdat_atl main 317 264 O_____________ hurdat_atl AL011884 53.3000 -15.0000 EX 50 -4 11 87
1884245N39298 1884 29 NA NA NOT_NAMED 1884-09-05 21:00:00 ET 53.3487 -14.1357 main 257 204 P_____________ AL011884 53.3487 -14.1357 EX 50 -4 10 84
1884245N39298 1884 29 NA NA NOT_NAMED 1884-09-06 00:00:00 ET 53.4000 -13.3000 50 hurdat_atl main 204 151 O_____________ hurdat_atl AL011884 53.4000 -13.3000 EX 50 -4 10 87
1884245N39298 1884 29 NA NA NOT_NAMED 1884-09-06 03:00:00 ET 53.3981 -12.4589 main 151 92 P_____________ AL011884 53.3981 -12.4589 EX 50 -4 11 90
1884245N39298 1884 29 NA NA NOT_NAMED 1884-09-06 06:00:00 ET 53.4000 -11.5000 50 hurdat_atl main 85 13 O_____________ hurdat_atl AL011884 53.4000 -11.5000 EX 50 -4 13 88
1884245N39298 1884 29 NA NA NOT_NAMED 1884-09-06 09:00:00 ET 53.4417 -10.3326 main 6 0 P_____________ AL011884 53.4417 -10.3326 EX 50 -4 15 86
1884245N39298 1884 29 NA NA NOT_NAMED 1884-09-06 12:00:00 ET 53.5000 -9.00000 50 hurdat_atl main 0 0 O_____________ hurdat_atl AL011884 53.5000 -9.00000 EX 50 -4 16 86
1884245N39298 1884 29 NA NA NOT_NAMED 1884-09-06 15:00:00 ET 53.5560 -7.57302 main 0 0 P_____________ AL011884 53.5560 -7.57302 EX 50 -4 17 87
1884245N39298 1884 29 NA NA NOT_NAMED 1884-09-06 18:00:00 ET 53.6000 -6.10000 50 hurdat_atl main 0 O_____________ hurdat_atl AL011884 53.6000 -6.10000 EX 50 -4 17 87

About IBTrACS Database

This database is a web-friendly format of International Best Track Archive for Climate Stewardship (IBTrACS), a global best track data archive curated by NOAA dating back to 1842.

Updated: 2021-11-26